Time;durP1;ratioP1;P1;durP2;ratioP2;P2;SDS_P1;SDS_P2;PMS_P1;PMS_P2;Temp;Humidity;BMP_temperature;BMP_pressure;BME280_temperature;BME280_humidity;BME280_pressure;Samples;Min_cycle;Max_cycle;Signal;HPM_P1;HPM_P2
2023/06/04 00:00:06;;;;;;;4.90;3.53;;;13.80;94.60;;;;;;5028565;28;21059;-68
2023/06/04 00:02:32;;;;;;;4.00;3.00;;;13.80;94.80;;;;;;5027289;28;20202;-68
2023/06/04 00:04:58;;;;;;;3.80;2.80;;;13.80;94.90;;;;;;5019800;28;20449;-68
2023/06/04 00:07:24;;;;;;;4.27;3.23;;;13.80;94.60;;;;;;5028224;28;20923;-68
2023/06/04 00:09:50;;;;;;;3.80;2.20;;;13.80;94.70;;;;;;5028206;28;20421;-68
2023/06/04 00:12:16;;;;;;;3.93;2.57;;;13.70;94.40;;;;;;5028728;28;20193;-68
2023/06/04 00:14:42;;;;;;;3.40;2.77;;;13.70;94.70;;;;;;5028062;28;20234;-68
2023/06/04 00:17:09;;;;;;;6.20;2.70;;;13.80;94.80;;;;;;5028247;28;20961;-68
2023/06/04 00:19:35;;;;;;;5.70;2.57;;;13.80;95.00;;;;;;5028186;28;20511;-68
2023/06/04 00:22:01;;;;;;;3.50;2.60;;;13.70;94.80;;;;;;5028561;28;20420;-68
2023/06/04 00:24:26;;;;;;;3.73;3.20;;;13.70;95.00;;;;;;5028053;28;20413;-68
2023/06/04 00:26:52;;;;;;;3.40;2.50;;;13.70;94.40;;;;;;5024591;28;20247;-69
2023/06/04 00:29:18;;;;;;;2.83;2.30;;;13.70;94.10;;;;;;5028083;28;20198;-68
2023/06/04 00:31:43;;;;;;;3.30;2.03;;;13.70;93.80;;;;;;5028059;28;20519;-68
2023/06/04 00:34:10;;;;;;;2.77;2.30;;;13.60;93.50;;;;;;5026963;28;20206;-68
2023/06/04 00:36:36;;;;;;;3.00;2.40;;;13.70;93.40;;;;;;5025989;28;20182;-68
2023/06/04 00:39:02;;;;;;;2.60;2.17;;;13.70;93.70;;;;;;5027790;28;20413;-68
2023/06/04 00:41:27;;;;;;;2.50;1.97;;;13.70;93.70;;;;;;5027748;28;20567;-68
2023/06/04 00:43:56;;;;;;;2.60;2.07;;;13.70;93.40;;;;;;5027771;28;20183;-68
2023/06/04 00:46:26;;;;;;;2.10;1.90;;;13.60;93.50;;;;;;5028038;28;20693;-68
2023/06/04 00:48:52;;;;;;;3.10;2.80;;;13.60;93.60;;;;;;5027676;28;20421;-69
2023/06/04 00:51:20;;;;;;;2.77;2.20;;;13.50;93.70;;;;;;5027668;28;20429;-69
2023/06/04 00:53:46;;;;;;;2.60;1.87;;;13.50;93.50;;;;;;5026232;28;20465;-69
2023/06/04 00:56:12;;;;;;;8.50;1.90;;;13.50;93.90;;;;;;5016528;28;20410;-68
2023/06/04 00:58:39;;;;;;;3.10;1.90;;;13.40;94.20;;;;;;5006798;28;20418;-68
2023/06/04 01:01:10;;;;;;;2.10;1.90;;;13.40;94.00;;;;;;5019408;28;20406;-68
2023/06/04 01:03:42;;;;;;;3.50;2.20;;;13.40;94.20;;;;;;5027739;28;20413;-68
2023/06/04 01:06:21;;;;;;;2.80;1.90;;;13.40;94.30;;;;;;5027447;28;20993;-68
2023/06/04 01:08:54;;;;;;;3.07;2.10;;;13.30;94.40;;;;;;5027771;28;21103;-68
2023/06/04 01:11:31;;;;;;;1.93;1.80;;;13.40;94.80;;;;;;5028118;28;20416;-68
2023/06/04 01:13:56;;;;;;;2.00;1.70;;;13.50;94.50;;;;;;5026422;28;20452;-68
2023/06/04 01:16:23;;;;;;;2.40;2.20;;;13.50;94.80;;;;;;5028045;28;20413;-68
2023/06/04 01:18:51;;;;;;;3.70;2.20;;;13.40;95.30;;;;;;5027498;28;20166;-68
2023/06/04 01:21:18;;;;;;;2.77;1.90;;;13.30;95.50;;;;;;5027914;28;20508;-68
2023/06/04 01:24:00;;;;;;;4.40;2.83;;;13.20;95.70;;;;;;5027700;28;20829;-68
2023/06/04 01:26:30;;;;;;;5.93;2.20;;;13.10;96.10;;;;;;5028030;28;20445;-69
2023/06/04 01:28:57;;;;;;;3.23;2.77;;;12.90;96.50;;;;;;5043980;28;20793;-68
2023/06/04 01:31:25;;;;;;;4.20;2.40;;;12.90;96.80;;;;;;5032873;28;20440;-68
2023/06/04 01:33:57;;;;;;;3.00;1.90;;;12.90;97.10;;;;;;5027226;28;20484;-68
2023/06/04 01:36:24;;;;;;;2.40;2.20;;;13.00;97.30;;;;;;5027713;28;20421;-68
2023/06/04 01:38:51;;;;;;;3.00;2.00;;;13.00;97.10;;;;;;5027447;28;20424;-68
2023/06/04 01:41:17;;;;;;;2.77;1.97;;;13.00;97.40;;;;;;5025655;28;21095;-68
2023/06/04 01:43:42;;;;;;;2.90;2.40;;;12.90;97.70;;;;;;5025935;28;20424;-68
2023/06/04 01:46:08;;;;;;;2.50;2.10;;;12.80;98.00;;;;;;5028946;28;20429;-69
2023/06/04 01:48:34;;;;;;;3.10;2.70;;;12.80;98.50;;;;;;5030869;28;20745;-68
2023/06/04 01:51:01;;;;;;;4.13;2.37;;;12.80;98.60;;;;;;5031279;28;20233;-68
2023/06/04 01:53:26;;;;;;;2.90;2.47;;;12.70;99.20;;;;;;5030887;28;20539;-68
2023/06/04 01:55:52;;;;;;;2.47;2.20;;;12.60;99.30;;;;;;5031242;28;20501;-69
2023/06/04 01:58:22;;;;;;;2.97;2.53;;;12.60;99.70;;;;;;5030797;28;20198;-68
2023/06/04 02:00:49;;;;;;;2.80;2.40;;;12.50;99.90;;;;;;5030906;28;20439;-68
2023/06/04 02:03:15;;;;;;;3.00;2.70;;;12.40;99.90;;;;;;5030914;28;20418;-68
2023/06/04 02:05:44;;;;;;;3.43;2.83;;;12.40;99.90;;;;;;5030262;28;20453;-68
2023/06/04 02:08:11;;;;;;;2.93;2.00;;;12.40;99.90;;;;;;5030654;28;20590;-68
2023/06/04 02:10:36;;;;;;;3.10;2.67;;;12.50;99.90;;;;;;5030838;28;20417;-68
2023/06/04 02:13:03;;;;;;;5.00;2.50;;;12.40;99.90;;;;;;5030854;28;20412;-68
2023/06/04 02:15:30;;;;;;;4.60;2.33;;;12.40;99.90;;;;;;5030514;28;20182;-68
2023/06/04 02:18:24;;;;;;;2.40;2.20;;;12.40;99.90;;;;;;5030065;28;20802;-68
2023/06/04 02:20:51;;;;;;;3.90;2.43;;;12.40;99.90;;;;;;5030339;28;20414;-68
2023/06/04 02:23:18;;;;;;;5.33;2.60;;;12.50;99.90;;;;;;5030656;28;20500;-68
2023/06/04 02:25:45;;;;;;;3.40;2.03;;;12.50;99.90;;;;;;5030865;28;20406;-68
2023/06/04 02:28:11;;;;;;;3.20;2.50;;;12.50;99.90;;;;;;5040416;28;20458;-68
2023/06/04 02:30:37;;;;;;;4.13;2.40;;;12.50;99.90;;;;;;5050269;28;20527;-68
2023/06/04 02:33:03;;;;;;;2.93;2.20;;;12.60;99.90;;;;;;5050411;28;20499;-68
2023/06/04 02:35:30;;;;;;;2.97;2.50;;;12.60;99.90;;;;;;5050530;28;20499;-68
2023/06/04 02:37:57;;;;;;;4.50;2.57;;;12.60;99.90;;;;;;5050027;28;20432;-68
2023/06/04 02:40:24;;;;;;;2.40;2.20;;;12.50;99.90;;;;;;5050018;28;20416;-69
2023/06/04 02:42:51;;;;;;;3.67;2.40;;;12.50;99.90;;;;;;5050220;28;20408;-68
2023/06/04 02:45:17;;;;;;;3.20;2.30;;;12.60;99.90;;;;;;5050093;28;20446;-68
2023/06/04 02:47:43;;;;;;;2.30;2.10;;;12.60;99.90;;;;;;5039510;28;21148;-68
2023/06/04 02:50:09;;;;;;;4.83;2.67;;;12.60;99.90;;;;;;5029813;28;20186;-68
2023/06/04 02:52:36;;;;;;;4.33;2.20;;;12.60;99.90;;;;;;5030349;28;20179;-68
2023/06/04 02:55:04;;;;;;;3.30;2.40;;;12.50;99.90;;;;;;5011990;28;20543;-68
2023/06/04 02:57:30;;;;;;;2.83;2.10;;;12.50;99.90;;;;;;5027558;28;20437;-68
2023/06/04 02:59:56;;;;;;;2.80;2.50;;;12.50;99.90;;;;;;5029765;28;20405;-68
2023/06/04 03:02:22;;;;;;;3.30;2.73;;;12.50;99.90;;;;;;5030017;28;20166;-68
2023/06/04 03:04:50;;;;;;;5.30;2.77;;;12.40;99.90;;;;;;5027113;28;20833;-69
2023/06/04 03:07:20;;;;;;;3.67;2.37;;;12.40;99.90;;;;;;5029495;28;20226;-69
2023/06/04 03:09:49;;;;;;;3.33;3.03;;;12.30;99.90;;;;;;5029603;28;20413;-68
2023/06/04 03:12:15;;;;;;;2.50;2.30;;;12.30;99.90;;;;;;5029878;28;20405;-68
2023/06/04 03:14:41;;;;;;;2.90;2.60;;;12.20;99.90;;;;;;5029276;28;20471;-68
2023/06/04 03:17:12;;;;;;;2.90;2.30;;;12.10;99.90;;;;;;5029403;28;20348;-68
2023/06/04 03:19:40;;;;;;;4.17;2.43;;;12.10;99.90;;;;;;5029532;28;20178;-68
2023/06/04 03:22:07;;;;;;;3.03;2.13;;;12.20;99.90;;;;;;5029796;28;20410;-68
2023/06/04 03:24:38;;;;;;;2.17;1.97;;;12.20;99.90;;;;;;5028240;28;20425;-68
2023/06/04 03:27:04;;;;;;;2.60;2.30;;;12.20;99.90;;;;;;5029953;28;20578;-68
2023/06/04 03:29:31;;;;;;;3.93;2.93;;;12.20;99.90;;;;;;5049201;28;20477;-68
2023/06/04 03:31:58;;;;;;;5.23;2.70;;;12.10;99.90;;;;;;5049328;28;20455;-68
2023/06/04 03:34:27;;;;;;;3.83;2.30;;;12.10;99.90;;;;;;5049011;28;20452;-68
2023/06/04 03:36:55;;;;;;;2.40;2.17;;;12.00;99.90;;;;;;5048807;28;20451;-68
2023/06/04 03:39:22;;;;;;;2.53;2.33;;;11.90;99.90;;;;;;5047644;28;20862;-68
2023/06/04 03:41:48;;;;;;;4.60;2.70;;;11.80;99.90;;;;;;5048904;28;20408;-69
2023/06/04 03:44:15;;;;;;;4.17;2.13;;;11.70;99.90;;;;;;5048901;28;20408;-68
2023/06/04 03:46:41;;;;;;;2.73;2.30;;;11.70;99.90;;;;;;5049086;28;20500;-69
2023/06/04 03:49:07;;;;;;;2.63;2.43;;;11.60;99.90;;;;;;5028054;28;20512;-69
2023/06/04 03:51:33;;;;;;;3.03;2.53;;;11.60;99.90;;;;;;5028768;28;20897;-69
2023/06/04 03:53:59;;;;;;;2.80;2.37;;;11.60;99.90;;;;;;5028665;28;20460;-69
2023/06/04 03:56:26;;;;;;;4.80;3.30;;;11.50;99.90;;;;;;5028959;28;20413;-69
2023/06/04 03:58:52;;;;;;;3.63;2.40;;;11.50;99.90;;;;;;5028673;28;20397;-69
2023/06/04 04:01:18;;;;;;;2.50;2.30;;;11.40;99.90;;;;;;5028590;28;20804;-68
2023/06/04 04:03:48;;;;;;;4.67;3.33;;;11.40;99.90;;;;;;5028473;28;20402;-68
2023/06/04 04:06:14;;;;;;;2.80;2.60;;;11.40;99.90;;;;;;5027502;28;20225;-69
2023/06/04 04:08:42;;;;;;;3.10;2.27;;;11.50;99.90;;;;;;5028284;28;20464;-69
2023/06/04 04:11:15;;;;;;;2.80;2.20;;;11.60;99.90;;;;;;5027506;28;20232;-68
2023/06/04 04:13:41;;;;;;;3.40;2.00;;;11.60;99.90;;;;;;5027950;28;20456;-69
2023/06/04 04:16:07;;;;;;;3.50;2.33;;;11.60;99.90;;;;;;5028256;28;20819;-69
2023/06/04 04:18:36;;;;;;;3.50;2.63;;;11.60;99.90;;;;;;5027547;28;20494;-68
2023/06/04 04:21:03;;;;;;;4.03;2.43;;;11.70;99.90;;;;;;5028281;28;20190;-69
2023/06/04 04:23:31;;;;;;;3.73;2.70;;;11.80;99.90;;;;;;5028305;28;20500;-68
2023/06/04 04:25:58;;;;;;;7.77;3.00;;;11.80;99.90;;;;;;5028505;28;20836;-69
2023/06/04 04:28:28;;;;;;;2.93;2.63;;;11.80;99.90;;;;;;5027818;28;20437;-68
2023/06/04 04:30:57;;;;;;;3.10;2.83;;;11.90;99.90;;;;;;5028114;28;20445;-68
2023/06/04 04:33:24;;;;;;;3.87;2.53;;;12.00;99.90;;;;;;5027909;28;20479;-69
2023/06/04 04:35:50;;;;;;;3.00;2.70;;;12.00;99.90;;;;;;5028466;28;20421;-69
2023/06/04 04:38:19;;;;;;;3.37;2.27;;;12.00;99.90;;;;;;5026707;28;20483;-69
2023/06/04 04:40:47;;;;;;;3.47;3.07;;;12.10;99.90;;;;;;5026366;28;20453;-69
2023/06/04 04:43:13;;;;;;;2.70;2.33;;;12.10;99.90;;;;;;5027764;28;20414;-68
2023/06/04 04:45:39;;;;;;;3.03;2.50;;;12.20;99.90;;;;;;5028386;28;20421;-69
2023/06/04 04:48:05;;;;;;;4.13;2.63;;;12.20;99.90;;;;;;5028137;28;20433;-68
2023/06/04 04:50:31;;;;;;;3.10;2.80;;;12.40;99.90;;;;;;5028124;28;20170;-69
2023/06/04 04:52:58;;;;;;;4.17;3.33;;;12.50;99.90;;;;;;5024870;28;20186;-69
2023/06/04 04:55:23;;;;;;;2.80;2.60;;;12.50;99.90;;;;;;5024263;28;20762;-69
2023/06/04 04:57:49;;;;;;;3.27;2.50;;;12.70;99.90;;;;;;5028032;28;20429;-69
2023/06/04 05:00:15;;;;;;;3.17;2.77;;;12.70;99.90;;;;;;5028087;28;20183;-70
2023/06/04 05:02:41;;;;;;;2.90;2.47;;;12.80;99.90;;;;;;5028131;28;20210;-69
2023/06/04 05:05:07;;;;;;;4.20;2.87;;;13.00;99.90;;;;;;5027856;28;20464;-69
2023/06/04 05:07:33;;;;;;;4.13;2.67;;;13.10;99.90;;;;;;5028272;28;20271;-69
2023/06/04 05:09:58;;;;;;;3.43;2.93;;;13.20;99.90;;;;;;5028065;28;20179;-69
2023/06/04 05:12:31;;;;;;;2.87;2.57;;;13.30;99.90;;;;;;5028199;28;20289;-69
2023/06/04 05:14:57;;;;;;;3.37;2.90;;;13.40;99.90;;;;;;5027660;28;20290;-69
2023/06/04 05:17:30;;;;;;;5.20;3.57;;;13.50;99.90;;;;;;5026681;28;20510;-69
2023/06/04 05:20:04;;;;;;;3.00;2.80;;;13.60;99.90;;;;;;5028271;28;20533;-69
2023/06/04 05:22:32;;;;;;;5.00;3.47;;;13.70;99.90;;;;;;5032134;28;20549;-69
2023/06/04 05:24:59;;;;;;;5.43;3.67;;;13.70;99.90;;;;;;5031607;28;20406;-68
2023/06/04 05:27:25;;;;;;;7.10;4.03;;;13.80;99.90;;;;;;5031642;28;20444;-69
2023/06/04 05:29:51;;;;;;;3.13;2.83;;;13.90;99.90;;;;;;5031819;28;20435;-69
2023/06/04 05:32:17;;;;;;;3.27;2.97;;;14.10;99.90;;;;;;5031843;28;20417;-69
2023/06/04 05:34:43;;;;;;;3.17;2.87;;;14.20;99.90;;;;;;5031409;28;20234;-69
2023/06/04 05:37:09;;;;;;;5.20;3.43;;;14.30;99.90;;;;;;5029926;28;20992;-69
2023/06/04 05:39:35;;;;;;;3.17;2.70;;;14.40;99.90;;;;;;5031361;28;20182;-69
2023/06/04 05:42:01;;;;;;;3.53;2.90;;;14.50;99.90;;;;;;5031601;28;20424;-69
2023/06/04 05:44:27;;;;;;;3.73;3.40;;;14.60;99.90;;;;;;5031296;28;20421;-69
2023/06/04 05:46:52;;;;;;;3.40;3.10;;;14.80;99.90;;;;;;5030690;28;20204;-69
2023/06/04 05:49:19;;;;;;;3.40;3.10;;;14.90;99.90;;;;;;5030938;28;20189;-69
2023/06/04 05:51:45;;;;;;;6.13;3.30;;;15.10;99.90;;;;;;5031438;28;20776;-69
2023/06/04 05:54:10;;;;;;;3.87;3.00;;;15.20;99.10;;;;;;5030948;28;20534;-69
2023/06/04 05:56:36;;;;;;;4.00;3.40;;;15.40;98.70;;;;;;5031292;28;20183;-69
2023/06/04 05:59:02;;;;;;;4.77;2.90;;;15.50;98.40;;;;;;5029694;28;20483;-69
2023/06/04 06:01:28;;;;;;;4.30;3.80;;;15.80;98.10;;;;;;5027661;28;20634;-69
2023/06/04 06:03:55;;;;;;;4.70;3.10;;;15.90;97.40;;;;;;5030800;28;20606;-69
2023/06/04 06:06:20;;;;;;;4.37;3.33;;;16.10;97.00;;;;;;5029023;28;20236;-69
2023/06/04 06:08:46;;;;;;;4.13;3.27;;;16.10;97.80;;;;;;5030712;28;20409;-69
2023/06/04 06:11:12;;;;;;;4.17;3.40;;;16.30;97.70;;;;;;5031033;28;20183;-69
2023/06/04 06:13:38;;;;;;;3.73;3.40;;;16.40;98.10;;;;;;5030575;28;20484;-69
2023/06/04 06:16:04;;;;;;;3.77;3.00;;;16.50;97.60;;;;;;5031269;28;20175;-69
2023/06/04 06:18:30;;;;;;;7.27;3.60;;;16.70;97.30;;;;;;5030697;28;20446;-69
2023/06/04 06:20:56;;;;;;;3.60;3.10;;;16.80;96.70;;;;;;5031092;28;20402;-69
2023/06/04 06:23:23;;;;;;;4.00;3.60;;;16.80;96.90;;;;;;5030581;28;20413;-69
2023/06/04 06:25:51;;;;;;;5.10;2.83;;;16.80;96.30;;;;;;5031238;28;20175;-69
2023/06/04 06:28:18;;;;;;;4.37;3.20;;;16.90;96.50;;;;;;5041517;28;20451;-69
2023/06/04 06:30:44;;;;;;;4.60;3.37;;;16.90;96.50;;;;;;5047762;28;20419;-68
2023/06/04 06:33:10;;;;;;;3.83;3.47;;;17.00;96.40;;;;;;5028620;28;20409;-69
2023/06/04 06:35:36;;;;;;;3.97;3.50;;;17.00;96.70;;;;;;5030557;28;20490;-69
2023/06/04 06:38:02;;;;;;;4.43;3.50;;;17.10;96.00;;;;;;5030332;28;20441;-69
2023/06/04 06:40:30;;;;;;;3.30;3.00;;;17.10;96.10;;;;;;5029731;28;20437;-69
2023/06/04 06:42:56;;;;;;;3.63;3.33;;;17.30;96.30;;;;;;5030249;28;20421;-69
2023/06/04 06:45:21;;;;;;;3.77;3.20;;;17.50;95.80;;;;;;5030106;28;20428;-69
2023/06/04 06:47:47;;;;;;;3.70;3.23;;;17.70;95.10;;;;;;5030204;28;20433;-69
2023/06/04 06:50:13;;;;;;;5.80;4.27;;;17.90;95.50;;;;;;5026780;28;20186;-68
2023/06/04 06:52:39;;;;;;;4.20;3.47;;;17.90;95.10;;;;;;5026233;28;20566;-68
2023/06/04 06:55:05;;;;;;;5.50;3.27;;;18.00;94.80;;;;;;5027802;28;20210;-68
2023/06/04 06:57:30;;;;;;;3.50;3.00;;;17.90;94.30;;;;;;5028715;28;20203;-68
2023/06/04 06:59:56;;;;;;;8.33;3.47;;;18.00;94.60;;;;;;5029704;28;20416;-68
2023/06/04 07:02:22;;;;;;;3.10;2.77;;;17.90;94.50;;;;;;5028548;28;21463;-68
2023/06/04 07:04:48;;;;;;;5.23;2.90;;;18.00;94.10;;;;;;5025576;28;20440;-68
2023/06/04 07:07:14;;;;;;;4.20;2.90;;;18.10;94.40;;;;;;5028746;28;20213;-68
2023/06/04 07:09:39;;;;;;;3.60;3.03;;;18.30;94.50;;;;;;5028811;28;20487;-68
2023/06/04 07:12:06;;;;;;;3.17;2.87;;;18.30;94.10;;;;;;5029028;28;20206;-68
2023/06/04 07:14:32;;;;;;;4.73;2.67;;;18.50;93.50;;;;;;5028529;28;20241;-68
2023/06/04 07:16:58;;;;;;;59.90;11.10;;;18.50;93.50;;;;;;5028676;28;20798;-68
2023/06/04 07:19:23;;;;;;;8.33;3.20;;;18.70;92.50;;;;;;5029780;28;20956;-68
2023/06/04 07:21:50;;;;;;;2.50;2.30;;;18.80;92.80;;;;;;5030210;28;20198;-68
2023/06/04 07:24:16;;;;;;;7.57;2.60;;;18.90;92.10;;;;;;5029590;28;20186;-68
2023/06/04 07:26:41;;;;;;;3.20;2.67;;;19.00;91.90;;;;;;5030148;28;20431;-68
2023/06/04 07:29:07;;;;;;;4.20;3.03;;;19.10;91.70;;;;;;5028390;28;20281;-68
2023/06/04 07:31:33;;;;;;;2.90;2.60;;;19.20;91.10;;;;;;5029323;28;20189;-68
2023/06/04 07:33:58;;;;;;;2.97;2.40;;;19.20;90.00;;;;;;5029681;28;20276;-68
2023/06/04 07:36:24;;;;;;;3.23;2.50;;;19.20;90.30;;;;;;5028125;28;20175;-68
2023/06/04 07:38:50;;;;;;;4.80;2.70;;;19.10;90.80;;;;;;5027549;28;20178;-68
2023/06/04 07:41:15;;;;;;;4.30;2.80;;;19.20;90.30;;;;;;5029511;28;20639;-68
2023/06/04 07:43:43;;;;;;;3.87;2.60;;;19.20;89.60;;;;;;5028946;28;20178;-68
2023/06/04 07:46:09;;;;;;;2.63;2.43;;;19.20;89.40;;;;;;5029847;28;20189;-68
2023/06/04 07:48:35;;;;;;;3.03;2.67;;;19.20;90.30;;;;;;5029049;28;20498;-68
2023/06/04 07:51:02;;;;;;;4.73;2.00;;;19.20;90.30;;;;;;5028950;28;20421;-69
2023/06/04 07:53:28;;;;;;;7.83;2.60;;;19.20;89.40;;;;;;5029030;28;20228;-69
2023/06/04 07:55:54;;;;;;;2.87;2.67;;;19.30;88.90;;;;;;5026320;28;20819;-68
2023/06/04 07:58:20;;;;;;;5.13;3.33;;;19.20;89.60;;;;;;5028904;28;20440;-68
2023/06/04 08:00:46;;;;;;;4.60;2.67;;;19.10;90.30;;;;;;5029132;28;20421;-68
2023/06/04 08:03:12;;;;;;;3.17;2.13;;;19.00;89.80;;;;;;5029026;28;20217;-68
2023/06/04 08:05:37;;;;;;;2.80;2.43;;;19.00;88.60;;;;;;5029347;28;20655;-68
2023/06/04 08:08:03;;;;;;;4.93;2.50;;;19.00;87.30;;;;;;5029036;28;20276;-68
2023/06/04 08:10:30;;;;;;;3.03;2.73;;;19.00;88.10;;;;;;5029124;28;20187;-68
2023/06/04 08:12:56;;;;;;;2.70;2.50;;;18.90;87.70;;;;;;5029209;28;20412;-68
2023/06/04 08:15:22;;;;;;;5.80;2.90;;;18.90;86.10;;;;;;5027287;28;20619;-68
2023/06/04 08:17:47;;;;;;;3.20;2.63;;;18.90;85.70;;;;;;5022088;28;20542;-68
2023/06/04 08:20:13;;;;;;;3.33;3.03;;;18.90;87.80;;;;;;5017295;28;20577;-68
2023/06/04 08:22:40;;;;;;;2.67;2.47;;;19.00;86.40;;;;;;5019103;28;20201;-68
2023/06/04 08:25:06;;;;;;;2.60;2.40;;;19.00;85.10;;;;;;5017033;28;20580;-68
2023/06/04 08:27:32;;;;;;;3.00;2.70;;;19.00;83.80;;;;;;5018374;28;20953;-69
2023/06/04 08:29:58;;;;;;;3.00;2.70;;;19.00;82.70;;;;;;5033405;28;20430;-69
2023/06/04 08:32:24;;;;;;;3.30;3.00;;;19.00;82.10;;;;;;5022666;28;20538;-69
2023/06/04 08:34:50;;;;;;;3.50;3.20;;;19.10;80.30;;;;;;5027770;28;20209;-69
2023/06/04 08:37:17;;;;;;;3.63;3.00;;;19.20;79.80;;;;;;5027948;28;20191;-69
2023/06/04 08:39:42;;;;;;;3.73;3.17;;;19.20;82.60;;;;;;5025034;28;20191;-69
2023/06/04 08:42:19;;;;;;;5.17;3.60;;;19.40;83.20;;;;;;5020140;28;20421;-69
2023/06/04 08:44:50;;;;;;;4.50;3.50;;;19.50;80.80;;;;;;5023131;28;20675;-69
2023/06/04 08:47:17;;;;;;;3.57;3.27;;;19.50;82.90;;;;;;5025439;28;21005;-69
2023/06/04 08:49:46;;;;;;;3.90;3.37;;;19.70;84.80;;;;;;5025169;28;20437;-69
2023/06/04 08:52:12;;;;;;;3.60;3.20;;;19.80;82.30;;;;;;5024654;28;20788;-69
2023/06/04 08:54:38;;;;;;;5.90;4.13;;;19.90;83.90;;;;;;5024313;28;20449;-69
2023/06/04 08:57:05;;;;;;;11.47;4.70;;;20.00;82.80;;;;;;5028424;28;20749;-69
2023/06/04 08:59:31;;;;;;;6.97;4.00;;;20.10;79.30;;;;;;5030285;28;20432;-69
2023/06/04 09:01:58;;;;;;;11.57;4.27;;;20.20;80.20;;;;;;5030143;28;20425;-69
2023/06/04 09:04:25;;;;;;;5.83;3.80;;;20.30;76.90;;;;;;5028235;28;20189;-69
2023/06/04 09:06:52;;;;;;;4.37;3.57;;;20.40;77.60;;;;;;5028529;28;20437;-69
2023/06/04 09:09:20;;;;;;;4.87;4.47;;;20.50;76.50;;;;;;5029484;28;21374;-69
2023/06/04 09:11:52;;;;;;;4.83;3.60;;;20.60;77.20;;;;;;5030269;28;20430;-69
2023/06/04 09:14:18;;;;;;;4.90;3.70;;;20.70;80.20;;;;;;5029101;28;20949;-69
2023/06/04 09:16:46;;;;;;;6.20;3.80;;;20.90;80.60;;;;;;5030266;28;20681;-70
2023/06/04 09:19:12;;;;;;;4.27;3.87;;;21.00;76.90;;;;;;5030484;28;20413;-69
2023/06/04 09:21:52;;;;;;;6.17;3.73;;;21.10;75.50;;;;;;5030155;28;20420;-69
2023/06/04 09:24:19;;;;;;;4.10;3.43;;;21.20;77.50;;;;;;5017555;28;20427;-69
2023/06/04 09:26:45;;;;;;;5.57;4.03;;;21.30;76.10;;;;;;5029922;28;20452;-69
2023/06/04 09:29:10;;;;;;;8.20;4.07;;;21.40;78.60;;;;;;5030335;28;20821;-69
2023/06/04 09:31:39;;;;;;;4.43;3.87;;;21.40;76.90;;;;;;5028621;28;20421;-70
2023/06/04 09:34:06;;;;;;;4.37;3.93;;;21.40;74.40;;;;;;5028760;28;20309;-69
2023/06/04 09:36:38;;;;;;;5.23;4.57;;;21.40;74.50;;;;;;5030138;28;20482;-70
2023/06/04 09:39:16;;;;;;;5.67;4.40;;;21.50;74.40;;;;;;5028299;28;20420;-69
2023/06/04 09:41:42;;;;;;;4.30;3.90;;;21.50;73.90;;;;;;5029023;28;20417;-69
2023/06/04 09:44:11;;;;;;;6.57;4.17;;;21.70;70.90;;;;;;5028610;28;20822;-69
2023/06/04 09:46:37;;;;;;;4.40;3.43;;;21.80;67.80;;;;;;5028466;28;20182;-69
2023/06/04 09:49:05;;;;;;;3.40;3.10;;;21.80;64.70;;;;;;5028176;28;20502;-69
2023/06/04 09:51:31;;;;;;;4.90;4.27;;;21.80;61.60;;;;;;5029138;28;20421;-70
2023/06/04 09:53:59;;;;;;;5.03;4.37;;;21.80;63.90;;;;;;5028989;28;20476;-69
2023/06/04 09:56:26;;;;;;;4.53;3.80;;;21.80;65.20;;;;;;5029295;28;20875;-69
2023/06/04 09:59:02;;;;;;;3.90;3.60;;;21.90;68.00;;;;;;5028121;28;20547;-69
2023/06/04 10:01:29;;;;;;;3.70;3.10;;;22.00;69.70;;;;;;5028087;28;20429;-69
2023/06/04 10:04:02;;;;;;;3.07;2.80;;;22.10;61.70;;;;;;5028657;28;21074;-69
2023/06/04 10:06:32;;;;;;;4.50;3.10;;;22.10;58.90;;;;;;5027714;28;20474;-69
2023/06/04 10:09:03;;;;;;;4.00;2.87;;;22.20;61.20;;;;;;5028946;28;20496;-69
2023/06/04 10:11:52;;;;;;;2.63;2.43;;;22.20;61.60;;;;;;5028601;28;20921;-69
2023/06/04 10:14:50;;;;;;;3.60;2.40;;;22.20;58.40;;;;;;5027974;28;21829;-69
2023/06/04 10:17:17;;;;;;;3.20;2.90;;;22.40;57.20;;;;;;5028376;28;20436;-70
2023/06/04 10:19:44;;;;;;;3.10;2.90;;;22.40;56.80;;;;;;5028648;28;20575;-69
2023/06/04 10:22:11;;;;;;;3.47;3.17;;;22.50;57.80;;;;;;5027515;28;20478;-69
2023/06/04 10:24:37;;;;;;;3.33;3.03;;;22.50;55.80;;;;;;5029025;28;20436;-69
2023/06/04 10:27:10;;;;;;;2.77;2.57;;;22.50;56.00;;;;;;5027561;28;20574;-70
2023/06/04 10:29:36;;;;;;;4.07;3.00;;;22.60;54.50;;;;;;5027177;28;20436;-69
2023/06/04 10:32:03;;;;;;;7.00;3.77;;;22.60;54.50;;;;;;5028959;28;20425;-69
2023/06/04 10:34:29;;;;;;;5.00;3.83;;;22.60;57.10;;;;;;5028001;28;20465;-69
2023/06/04 10:36:55;;;;;;;3.53;3.23;;;22.70;58.20;;;;;;5028968;28;20433;-71
2023/06/04 10:39:33;;;;;;;3.50;3.20;;;22.70;54.90;;;;;;5028999;28;20479;-69
2023/06/04 10:42:05;;;;;;;3.53;3.23;;;22.80;58.80;;;;;;5028910;28;20182;-70
2023/06/04 10:44:32;;;;;;;8.43;3.30;;;22.90;59.80;;;;;;5029182;28;20487;-69
2023/06/04 10:47:01;;;;;;;3.97;3.00;;;22.90;56.40;;;;;;5028834;28;20903;-70
2023/06/04 10:49:28;;;;;;;9.03;3.40;;;23.00;58.10;;;;;;5029294;28;22426;-70
2023/06/04 10:52:03;;;;;;;4.00;2.90;;;23.00;61.30;;;;;;5029114;28;20421;-69
2023/06/04 10:54:29;;;;;;;4.63;2.97;;;23.00;62.80;;;;;;5028626;28;20456;-70
2023/06/04 10:56:55;;;;;;;3.77;3.00;;;23.10;60.00;;;;;;5028460;28;20451;-70
2023/06/04 10:59:24;;;;;;;2.60;2.40;;;23.10;56.80;;;;;;5028794;28;20422;-69
2023/06/04 11:01:49;;;;;;;3.50;2.73;;;23.10;57.30;;;;;;5028446;28;21004;-69
2023/06/04 11:04:23;;;;;;;3.77;2.27;;;23.10;57.40;;;;;;5027214;28;20440;-69
2023/06/04 11:07:09;;;;;;;2.93;2.40;;;23.10;55.60;;;;;;5026815;28;20245;-69
2023/06/04 11:09:47;;;;;;;3.43;2.63;;;23.10;56.20;;;;;;5028228;28;20547;-69
2023/06/04 11:12:13;;;;;;;4.43;2.80;;;23.10;53.20;;;;;;5027761;28;20432;-69
2023/06/04 11:14:39;;;;;;;3.30;2.83;;;23.00;53.60;;;;;;5027969;28;20453;-69
2023/06/04 11:17:12;;;;;;;3.43;2.57;;;23.00;53.50;;;;;;5027942;28;20207;-69
2023/06/04 11:19:38;;;;;;;3.30;3.00;;;23.00;55.60;;;;;;5026345;28;20421;-69
2023/06/04 11:22:12;;;;;;;3.80;2.53;;;23.00;53.30;;;;;;5027726;28;20448;-69
2023/06/04 11:24:37;;;;;;;3.53;2.83;;;23.10;55.50;;;;;;5026911;28;20422;-70
2023/06/04 11:27:03;;;;;;;3.30;3.00;;;23.10;58.50;;;;;;5026655;28;20989;-69
2023/06/04 11:29:30;;;;;;;9.63;3.47;;;23.20;59.20;;;;;;5026550;28;20609;-70
2023/06/04 11:31:57;;;;;;;3.20;2.90;;;23.30;58.00;;;;;;5028025;28;20444;-69
2023/06/04 11:34:23;;;;;;;3.73;2.60;;;23.40;58.40;;;;;;5026407;28;20857;-69
2023/06/04 11:36:55;;;;;;;3.73;3.00;;;23.50;54.10;;;;;;5027112;28;20472;-69
2023/06/04 11:39:34;;;;;;;3.00;2.40;;;23.60;52.50;;;;;;5027870;28;20418;-69
2023/06/04 11:42:05;;;;;;;3.47;2.90;;;23.50;52.20;;;;;;5027329;28;21037;-70
2023/06/04 11:44:31;;;;;;;2.77;2.57;;;23.60;55.80;;;;;;5027408;28;20443;-70
2023/06/04 11:46:57;;;;;;;3.00;2.70;;;23.70;57.50;;;;;;5027399;28;20457;-69
2023/06/04 11:49:23;;;;;;;5.60;3.10;;;23.70;55.50;;;;;;5027671;28;21118;-70
2023/06/04 11:51:50;;;;;;;3.80;2.57;;;23.80;55.70;;;;;;5027197;28;20182;-69
2023/06/04 11:54:17;;;;;;;2.33;2.10;;;23.70;51.40;;;;;;5027082;28;20209;-69
2023/06/04 11:56:44;;;;;;;2.33;2.13;;;23.80;53.00;;;;;;5027108;28;20466;-69
2023/06/04 11:59:14;;;;;;;3.10;2.80;;;23.80;51.90;;;;;;5027211;28;20448;-69
2023/06/04 12:01:47;;;;;;;2.83;2.57;;;23.90;52.50;;;;;;5026866;28;20431;-69
2023/06/04 12:04:17;;;;;;;3.17;2.70;;;23.80;52.10;;;;;;5026381;28;20438;-70
2023/06/04 12:06:57;;;;;;;3.37;2.63;;;23.60;51.30;;;;;;5025299;28;20540;-70
2023/06/04 12:09:28;;;;;;;2.63;2.30;;;23.60;53.20;;;;;;5026850;28;20436;-69
2023/06/04 12:12:07;;;;;;;5.27;3.10;;;23.60;52.90;;;;;;5026192;28;20413;-69
2023/06/04 12:14:33;;;;;;;2.80;2.20;;;23.70;54.40;;;;;;5026701;28;20460;-69
2023/06/04 12:17:07;;;;;;;5.07;2.47;;;23.70;56.30;;;;;;5025462;28;20449;-70
2023/06/04 12:19:44;;;;;;;4.37;2.97;;;23.80;57.10;;;;;;5024874;28;20453;-70
2023/06/04 12:22:09;;;;;;;2.80;2.60;;;23.90;56.40;;;;;;5023599;28;20579;-69
2023/06/04 12:24:47;;;;;;;2.67;2.47;;;24.00;56.10;;;;;;5025800;28;20536;-69
2023/06/04 12:27:13;;;;;;;2.80;2.30;;;24.10;53.50;;;;;;5025053;28;20217;-70
2023/06/04 12:29:39;;;;;;;2.77;2.27;;;24.10;52.40;;;;;;5026143;28;20417;-70
2023/06/04 12:32:11;;;;;;;3.60;2.40;;;24.00;49.60;;;;;;5026354;28;20205;-69
2023/06/04 12:34:40;;;;;;;2.13;1.93;;;24.00;52.60;;;;;;5024964;28;20449;-70
2023/06/04 12:37:07;;;;;;;3.13;2.23;;;24.00;54.90;;;;;;5024716;28;20985;-69
2023/06/04 12:39:34;;;;;;;2.90;2.70;;;24.00;54.40;;;;;;5024269;28;20475;-69
2023/06/04 12:42:00;;;;;;;4.20;2.43;;;24.00;54.10;;;;;;5026749;28;20543;-69
2023/06/04 12:44:26;;;;;;;3.03;2.83;;;24.00;53.70;;;;;;5026464;28;21130;-69
2023/06/04 12:46:51;;;;;;;12.50;2.90;;;24.00;54.20;;;;;;5024986;28;20209;-69